Sieboldt, Kansas
Current Conditions -  °F | °C
As of 7:54 PM on Friday 28 Nov 2014 (Local Time) from KWLD Reporting Station
Clear Clear  
Wind Chill: 53°   Ceiling: Unl
Heat Index: 53°   Visibility: 10mi
Dew Point: 40°   Wind: 10mph
Humidity: 61%   Direction: 180°S
Pressure: 29.83"   Gusts: NA
Location:  37.2192°N, 97.2035°W
Report Text: KWLD 290154Z AUTO 18009KT 10SM CLR 12/04 A2983 RMK AO2 SLP104 T01170044
Loading
Personal Weather Stations






























Interactive Weather Map New forecast layout! Learn more

10-Day Weather Forecast

Advertisements
Track Severe Weather on mobile